createdAt,value
2023-05-23T00:01:31.373Z,4.43
2023-05-23T00:03:58.467Z,4.85
2023-05-23T00:06:24.972Z,4.30
2023-05-23T00:08:51.637Z,4.05
2023-05-23T00:11:20.204Z,4.40
2023-05-23T00:13:46.604Z,4.45
2023-05-23T00:16:13.044Z,4.53
2023-05-23T00:18:42.982Z,4.80
2023-05-23T00:21:10.038Z,4.40
2023-05-23T00:23:36.464Z,4.60
2023-05-23T00:26:03.790Z,4.53
2023-05-23T00:28:30.407Z,4.82
2023-05-23T00:30:56.843Z,4.40
2023-05-23T00:33:23.621Z,4.55
2023-05-23T00:35:50.061Z,4.57
2023-05-23T00:38:16.945Z,5.10
2023-05-23T00:40:43.462Z,4.57
2023-05-23T00:43:10.002Z,4.72
2023-05-23T00:45:36.694Z,4.25
2023-05-23T00:48:04.439Z,4.60
2023-05-23T00:50:30.952Z,4.88
2023-05-23T00:53:00.433Z,4.60
2023-05-23T00:55:27.527Z,4.60
2023-05-23T00:57:57.038Z,4.28
2023-05-23T01:00:24.623Z,4.97
2023-05-23T01:02:52.133Z,4.75
2023-05-23T01:05:20.047Z,4.95
2023-05-23T01:07:49.496Z,4.45
2023-05-23T01:10:19.763Z,5.20
2023-05-23T01:12:55.680Z,4.60
2023-05-23T01:15:26.177Z,4.40
2023-05-23T01:18:05.230Z,4.32
2023-05-23T01:20:37.860Z,5.00
2023-05-23T01:23:20.548Z,4.43
2023-05-23T01:26:18.680Z,4.70
2023-05-23T01:28:54.795Z,4.60
2023-05-23T01:31:23.473Z,4.78
2023-05-23T01:33:53.392Z,4.85
2023-05-23T01:36:21.232Z,4.57
2023-05-23T01:38:47.649Z,4.93
2023-05-23T01:41:14.064Z,4.78
2023-05-23T01:43:40.501Z,4.50
2023-05-23T01:46:08.276Z,4.72
2023-05-23T01:48:35.404Z,4.75
2023-05-23T01:51:02.373Z,4.50
2023-05-23T01:53:30.353Z,5.10
2023-05-23T01:55:57.293Z,4.53
2023-05-23T01:58:23.704Z,4.32
2023-05-23T02:00:50.374Z,4.75
2023-05-23T02:03:17.070Z,4.30
2023-05-23T02:05:44.021Z,4.93
2023-05-23T02:08:10.628Z,4.97
2023-05-23T02:10:37.097Z,4.85
2023-05-23T02:13:03.775Z,5.05
2023-05-23T02:15:30.181Z,4.95
2023-05-23T02:17:57.052Z,4.85
2023-05-23T02:20:23.565Z,5.00
2023-05-23T02:22:50.006Z,4.55
2023-05-23T02:25:16.428Z,4.88
2023-05-23T02:27:42.949Z,4.72
2023-05-23T02:30:09.762Z,4.90
2023-05-23T02:32:37.577Z,4.65
2023-05-23T02:35:05.477Z,5.13
2023-05-23T02:37:31.894Z,4.82
2023-05-23T02:39:58.305Z,5.28
2023-05-23T02:42:24.743Z,5.00
2023-05-23T02:44:51.199Z,4.78
2023-05-23T02:47:17.588Z,5.38
2023-05-23T02:49:44.008Z,4.85
2023-05-23T02:52:10.471Z,5.65
2023-05-23T02:54:36.885Z,5.05
2023-05-23T02:57:04.264Z,5.30
2023-05-23T02:59:30.783Z,5.53
2023-05-23T03:01:57.224Z,5.32
2023-05-23T03:04:23.979Z,5.35
2023-05-23T03:06:54.249Z,4.95
2023-05-23T03:09:20.797Z,5.03
2023-05-23T03:11:47.352Z,5.63
2023-05-23T03:14:13.955Z,5.65
2023-05-23T03:16:40.598Z,5.40
2023-05-23T03:19:07.240Z,5.53
2023-05-23T03:21:35.244Z,5.80
2023-05-23T03:24:01.820Z,5.30
2023-05-23T03:26:28.476Z,5.60
2023-05-23T03:28:55.003Z,5.50
2023-05-23T03:31:21.532Z,5.80
2023-05-23T03:33:48.060Z,5.47
2023-05-23T03:36:14.592Z,5.63
2023-05-23T03:38:41.100Z,5.38
2023-05-23T03:41:07.619Z,5.30
2023-05-23T03:43:34.159Z,5.45
2023-05-23T03:46:00.899Z,5.40
2023-05-23T03:48:27.452Z,5.50
2023-05-23T03:50:54.085Z,5.40
2023-05-23T03:53:20.616Z,5.20
2023-05-23T03:55:47.152Z,5.80
2023-05-23T03:58:13.672Z,5.85
2023-05-23T04:00:40.314Z,5.22
2023-05-23T04:03:06.988Z,5.70
2023-05-23T04:05:33.604Z,5.47
2023-05-23T04:08:01.403Z,5.90
2023-05-23T04:10:28.100Z,5.88
2023-05-23T04:12:54.662Z,5.85
2023-05-23T04:15:21.689Z,6.00
2023-05-23T04:17:48.376Z,5.68
2023-05-23T04:20:14.952Z,5.65
2023-05-23T04:22:41.398Z,5.68
2023-05-23T04:25:09.436Z,6.28
2023-05-23T04:27:36.847Z,6.18
2023-05-23T04:30:05.091Z,6.13
2023-05-23T04:32:31.525Z,5.93
2023-05-23T04:34:58.076Z,5.85
2023-05-23T04:37:26.339Z,5.88
2023-05-23T04:39:53.119Z,5.90
2023-05-23T04:42:24.304Z,6.43
2023-05-23T04:44:51.565Z,6.00
2023-05-23T04:47:19.025Z,6.03
2023-05-23T04:49:45.423Z,5.82
2023-05-23T04:52:11.820Z,6.00
2023-05-23T04:54:40.515Z,6.05
2023-05-23T04:57:07.240Z,6.15
2023-05-23T04:59:33.651Z,5.60
2023-05-23T05:02:00.080Z,6.13
2023-05-23T05:04:26.546Z,6.47
2023-05-23T05:06:53.385Z,6.30
2023-05-23T05:09:19.797Z,6.32
2023-05-23T05:11:46.265Z,5.80
2023-05-23T05:14:12.709Z,6.93
2023-05-23T05:16:39.378Z,7.00
2023-05-23T05:19:06.247Z,6.82
2023-05-23T05:21:32.666Z,6.72
2023-05-23T05:24:00.046Z,6.45
2023-05-23T05:26:26.909Z,6.20
2023-05-23T05:28:55.906Z,5.90
2023-05-23T05:31:22.396Z,5.90
2023-05-23T05:33:49.913Z,6.45
2023-05-23T05:36:16.425Z,6.25
2023-05-23T05:38:42.889Z,6.60
2023-05-23T05:41:09.544Z,6.53
2023-05-23T05:43:36.081Z,6.72
2023-05-23T05:46:02.579Z,7.00
2023-05-23T05:48:29.166Z,6.63
2023-05-23T05:50:55.630Z,7.15
2023-05-23T05:53:22.093Z,7.22
2023-05-23T05:55:48.519Z,7.20
2023-05-23T05:58:14.981Z,7.40
2023-05-23T06:00:44.210Z,7.15
2023-05-23T06:03:11.148Z,6.55
2023-05-23T06:05:37.946Z,6.80
2023-05-23T06:08:04.897Z,6.65
2023-05-23T06:10:31.337Z,7.13
2023-05-23T06:12:58.776Z,7.03
2023-05-23T06:15:25.550Z,6.53
2023-05-23T06:17:52.401Z,6.70
2023-05-23T06:20:18.857Z,6.55
2023-05-23T06:22:45.513Z,6.78
2023-05-23T06:25:12.350Z,7.00
2023-05-23T06:27:38.894Z,6.82
2023-05-23T06:30:06.100Z,7.13
2023-05-23T06:32:32.571Z,7.20
2023-05-23T06:34:59.066Z,6.57
2023-05-23T06:37:25.474Z,6.65
2023-05-23T06:39:51.918Z,7.00
2023-05-23T06:42:18.378Z,6.57
2023-05-23T06:44:44.821Z,7.30
2023-05-23T06:47:11.227Z,7.00
2023-05-23T06:49:37.638Z,7.35
2023-05-23T06:52:04.180Z,6.88
2023-05-23T06:54:30.582Z,7.20
2023-05-23T06:56:57.149Z,6.95
2023-05-23T06:59:23.571Z,6.53
2023-05-23T07:01:50.007Z,6.93
2023-05-23T07:04:16.440Z,6.43
2023-05-23T07:06:42.831Z,6.95
2023-05-23T07:09:09.264Z,6.72
2023-05-23T07:11:35.676Z,6.45
2023-05-23T07:14:02.126Z,7.25
2023-05-23T07:16:28.572Z,7.00
2023-05-23T07:18:55.065Z,6.95
2023-05-23T07:21:21.508Z,7.53
2023-05-23T07:23:47.901Z,7.28
2023-05-23T07:26:14.324Z,6.97
2023-05-23T07:28:40.776Z,7.22
2023-05-23T07:31:09.223Z,6.55
2023-05-23T07:33:35.828Z,6.65
2023-05-23T07:36:02.242Z,6.43
2023-05-23T07:38:28.662Z,6.13
2023-05-23T07:41:03.151Z,7.20
2023-05-23T07:43:36.890Z,7.00
2023-05-23T07:46:03.342Z,6.28
2023-05-23T07:48:29.789Z,6.32
2023-05-23T07:50:56.280Z,6.60
2023-05-23T07:53:22.802Z,6.57
2023-05-23T07:55:49.275Z,6.63
2023-05-23T07:58:16.236Z,6.22
2023-05-23T08:00:44.207Z,6.78
2023-05-23T08:03:11.865Z,6.70
2023-05-23T08:05:38.388Z,6.82
2023-05-23T08:08:04.841Z,6.75
2023-05-23T08:10:31.356Z,6.80
2023-05-23T08:13:00.515Z,6.47
2023-05-23T08:15:26.970Z,6.40
2023-05-23T08:17:56.973Z,6.78
2023-05-23T08:20:30.473Z,6.70
2023-05-23T08:22:59.240Z,6.68
2023-05-23T08:25:26.252Z,6.75
2023-05-23T08:27:53.474Z,6.10
2023-05-23T08:30:23.079Z,5.90
2023-05-23T08:32:49.529Z,6.25
2023-05-23T08:35:16.179Z,5.88
2023-05-23T08:37:43.087Z,7.10
2023-05-23T08:40:21.336Z,6.88
2023-05-23T08:42:49.378Z,7.28
2023-05-23T08:45:16.885Z,6.47
2023-05-23T08:47:44.861Z,6.85
2023-05-23T08:50:21.154Z,6.40
2023-05-23T08:52:56.572Z,7.00
2023-05-23T08:55:28.015Z,6.70
2023-05-23T08:57:55.901Z,6.85
2023-05-23T09:00:23.349Z,7.45
2023-05-23T09:02:49.914Z,6.90
2023-05-23T09:05:16.982Z,8.25
2023-05-23T09:07:47.866Z,7.57
2023-05-23T09:10:17.010Z,8.27
2023-05-23T09:12:44.453Z,7.95
2023-05-23T09:15:11.722Z,7.35
2023-05-23T09:17:38.636Z,8.27
2023-05-23T09:20:15.957Z,7.60
2023-05-23T09:22:47.870Z,8.10
2023-05-23T09:25:14.450Z,7.60
2023-05-23T09:27:42.155Z,7.30
2023-05-23T09:30:10.292Z,7.28
2023-05-23T09:32:36.938Z,7.30
2023-05-23T09:35:07.938Z,7.22
2023-05-23T09:37:40.849Z,7.22
2023-05-23T09:40:11.665Z,7.80
2023-05-23T09:42:45.774Z,7.15
2023-05-23T09:45:13.350Z,7.78
2023-05-23T09:47:39.851Z,7.78
2023-05-23T09:50:08.717Z,7.80
2023-05-23T09:52:38.510Z,7.63
2023-05-23T09:55:06.760Z,7.63
2023-05-23T09:57:39.945Z,7.43
2023-05-23T10:00:11.021Z,6.90
2023-05-23T10:03:02.038Z,7.22
2023-05-23T10:05:38.607Z,6.85
2023-05-23T10:08:10.720Z,7.53
2023-05-23T10:10:58.075Z,7.75
2023-05-23T10:13:28.935Z,7.95
2023-05-23T10:16:27.180Z,8.13
2023-05-23T10:18:58.085Z,8.02
2023-05-23T10:21:29.569Z,8.23
2023-05-23T10:23:59.151Z,9.23
2023-05-23T10:26:27.217Z,8.82
2023-05-23T10:28:54.874Z,8.57
2023-05-23T10:31:21.787Z,9.65
2023-05-23T10:33:56.665Z,10.00
2023-05-23T10:36:30.764Z,9.90
2023-05-23T10:39:08.319Z,10.93
2023-05-23T10:41:43.517Z,12.20
2023-05-23T10:44:19.445Z,12.77
2023-05-23T10:46:52.987Z,13.35
2023-05-23T10:49:20.397Z,13.32
2023-05-23T10:51:52.825Z,14.38
2023-05-23T10:54:22.646Z,14.23
2023-05-23T10:57:03.223Z,14.70
2023-05-23T10:59:29.659Z,15.60
2023-05-23T11:01:56.489Z,16.98
2023-05-23T11:04:27.654Z,16.35
2023-05-23T11:06:55.738Z,18.27
2023-05-23T11:09:22.785Z,19.35
2023-05-23T11:11:49.119Z,17.65
2023-05-23T11:14:15.640Z,19.00
2023-05-23T11:16:46.892Z,19.92
2023-05-23T11:19:20.016Z,20.00
2023-05-23T11:21:49.851Z,19.77
2023-05-23T11:24:17.626Z,19.20
2023-05-23T11:27:04.083Z,25.20
2023-05-23T11:29:30.915Z,20.63
2023-05-23T11:31:57.656Z,21.20
2023-05-23T11:34:27.141Z,21.90
2023-05-23T11:36:55.626Z,22.05
2023-05-23T11:39:23.164Z,22.17
2023-05-23T11:42:02.779Z,21.63
2023-05-23T11:44:29.813Z,21.70
2023-05-23T11:47:01.509Z,21.58
2023-05-23T11:49:29.270Z,21.85
2023-05-23T11:51:56.013Z,21.85
2023-05-23T11:54:24.363Z,22.02
2023-05-23T11:56:51.053Z,22.90
2023-05-23T11:59:17.506Z,20.98
2023-05-23T12:01:43.986Z,20.77
2023-05-23T12:04:13.894Z,20.60
2023-05-23T12:06:41.951Z,22.00
2023-05-23T12:09:11.641Z,22.00
2023-05-23T12:11:39.626Z,21.00
2023-05-23T12:14:06.834Z,21.05
2023-05-23T12:16:34.145Z,20.38
2023-05-23T12:19:02.035Z,21.08
2023-05-23T12:21:42.721Z,22.60
2023-05-23T12:24:17.297Z,22.20
2023-05-23T12:26:55.089Z,21.73
2023-05-23T12:29:27.970Z,22.77
2023-05-23T12:31:54.465Z,23.05
2023-05-23T12:34:21.898Z,20.83
2023-05-23T12:36:50.741Z,20.17
2023-05-23T12:39:26.395Z,19.10
2023-05-23T12:41:52.812Z,19.25
2023-05-23T12:44:19.271Z,18.40
2023-05-23T12:46:46.222Z,17.85
2023-05-23T12:49:12.991Z,17.15
2023-05-23T12:51:40.376Z,16.48
2023-05-23T12:54:09.082Z,16.90
2023-05-23T12:56:35.504Z,16.75
2023-05-23T12:59:03.326Z,17.10
2023-05-23T13:01:30.200Z,16.00
2023-05-23T13:03:56.809Z,17.88
2023-05-23T13:06:23.257Z,17.45
2023-05-23T13:08:51.077Z,19.40
2023-05-23T13:11:17.742Z,19.77
2023-05-23T13:13:44.178Z,21.15
2023-05-23T13:16:11.154Z,20.77
2023-05-23T13:18:37.620Z,22.48
2023-05-23T13:21:04.237Z,22.75
2023-05-23T13:23:30.831Z,23.85
2023-05-23T13:25:58.030Z,23.30
2023-05-23T13:28:24.642Z,22.30
2023-05-23T13:30:51.470Z,22.02
2023-05-23T13:33:18.000Z,21.08
2023-05-23T13:35:44.917Z,20.58
2023-05-23T13:38:11.578Z,21.25
2023-05-23T13:40:37.990Z,20.15
2023-05-23T13:43:04.403Z,20.80
2023-05-23T13:45:31.051Z,19.40
2023-05-23T13:47:57.486Z,18.20
2023-05-23T13:50:23.966Z,18.98
2023-05-23T13:52:50.438Z,19.60
2023-05-23T13:55:18.572Z,21.23
2023-05-23T13:57:45.554Z,22.10
2023-05-23T14:00:12.530Z,21.98
2023-05-23T14:02:38.951Z,21.60
2023-05-23T14:05:07.258Z,21.48
2023-05-23T14:07:33.855Z,22.08
2023-05-23T14:10:00.258Z,21.38
2023-05-23T14:12:26.726Z,23.00
2023-05-23T14:14:53.193Z,24.92
2023-05-23T14:17:19.818Z,23.85
2023-05-23T14:19:47.489Z,22.88
2023-05-23T14:22:14.069Z,22.83
2023-05-23T14:24:40.479Z,22.80
2023-05-23T14:27:09.363Z,22.45
2023-05-23T14:29:36.703Z,21.10
2023-05-23T14:32:04.124Z,21.50
2023-05-23T14:34:30.666Z,21.67
2023-05-23T14:36:57.070Z,20.67
2023-05-23T14:39:25.366Z,20.23
2023-05-23T14:41:51.757Z,20.75
2023-05-23T14:44:18.172Z,20.60
2023-05-23T14:46:48.432Z,20.70
2023-05-23T14:49:15.541Z,18.08
2023-05-23T14:51:49.045Z,18.02
2023-05-23T14:54:17.073Z,18.13
2023-05-23T14:56:43.498Z,15.68
2023-05-23T14:59:09.927Z,11.43
2023-05-23T15:01:39.473Z,11.15
2023-05-23T15:04:09.053Z,10.25
2023-05-23T15:06:37.865Z,9.93
2023-05-23T15:09:04.395Z,9.55
2023-05-23T15:11:32.097Z,9.30
2023-05-23T15:13:59.749Z,7.85
2023-05-23T15:16:26.794Z,7.50
2023-05-23T15:18:53.303Z,7.82
2023-05-23T15:21:19.809Z,7.57
2023-05-23T15:23:46.200Z,7.88
2023-05-23T15:26:12.619Z,7.25
2023-05-23T15:28:39.012Z,8.25
2023-05-23T15:31:05.478Z,8.40
2023-05-23T15:33:32.268Z,8.13
2023-05-23T15:35:59.430Z,8.93
2023-05-23T15:38:25.886Z,8.82
2023-05-23T15:40:54.595Z,8.57
2023-05-23T15:43:21.087Z,8.63
2023-05-23T15:45:49.897Z,9.13
2023-05-23T15:48:16.555Z,9.10
2023-05-23T15:50:43.877Z,9.45
2023-05-23T15:53:10.623Z,9.48
2023-05-23T15:55:39.805Z,8.57
2023-05-23T15:58:07.872Z,9.43
2023-05-23T16:00:34.294Z,9.38
2023-05-23T16:03:00.796Z,10.13
2023-05-23T16:05:27.300Z,10.10
2023-05-23T16:07:53.716Z,10.30
2023-05-23T16:10:20.148Z,9.65
2023-05-23T16:12:46.621Z,9.07
2023-05-23T16:15:13.032Z,8.93
2023-05-23T16:17:39.447Z,9.23
2023-05-23T16:20:06.528Z,9.50
2023-05-23T16:22:32.939Z,8.53
2023-05-23T16:24:59.356Z,8.17
2023-05-23T16:27:25.762Z,8.17
2023-05-23T16:29:52.162Z,8.50
2023-05-23T16:32:18.581Z,7.97
2023-05-23T16:34:49.412Z,8.13
2023-05-23T16:37:19.221Z,8.30
2023-05-23T16:39:45.702Z,8.53
2023-05-23T16:42:12.156Z,8.63
2023-05-23T16:44:38.599Z,9.00
2023-05-23T16:47:05.305Z,10.60
2023-05-23T16:49:31.708Z,9.80
2023-05-23T16:51:58.138Z,9.20
2023-05-23T16:54:24.577Z,9.60
2023-05-23T16:56:51.054Z,9.83
2023-05-23T16:59:17.977Z,9.73
2023-05-23T17:01:44.417Z,8.57
2023-05-23T17:04:10.882Z,7.87
2023-05-23T17:06:37.988Z,8.27
2023-05-23T17:09:04.550Z,7.07
2023-05-23T17:11:30.988Z,6.65
2023-05-23T17:13:57.387Z,4.97
2023-05-23T17:16:23.877Z,4.17
2023-05-23T17:18:50.573Z,3.90
2023-05-23T17:21:17.028Z,4.63
2023-05-23T17:23:43.468Z,4.00
2023-05-23T17:26:10.812Z,4.20
2023-05-23T17:28:37.224Z,3.47
2023-05-23T17:31:03.655Z,3.60
2023-05-23T17:33:30.068Z,3.67
2023-05-23T17:35:56.481Z,4.37
2023-05-23T17:38:22.896Z,3.80
2023-05-23T17:40:49.330Z,3.87
2023-05-23T17:43:15.749Z,4.60
2023-05-23T17:45:42.259Z,4.47
2023-05-23T17:48:08.745Z,3.80
2023-05-23T17:50:35.715Z,5.87
2023-05-23T17:53:04.191Z,4.10
2023-05-23T17:55:30.830Z,5.57
2023-05-23T17:57:57.268Z,4.37
2023-05-23T18:00:24.151Z,4.07
2023-05-23T18:02:51.798Z,4.50
2023-05-23T18:05:20.685Z,4.30
2023-05-23T18:07:47.857Z,5.70
2023-05-23T18:10:14.447Z,5.73
2023-05-23T18:12:41.081Z,4.50
2023-05-23T18:15:08.813Z,5.40
2023-05-23T18:17:35.646Z,6.30
2023-05-23T18:20:02.254Z,4.80
2023-05-23T18:22:31.008Z,4.70
2023-05-23T18:24:57.568Z,5.27
2023-05-23T18:27:23.991Z,6.03
2023-05-23T18:29:50.486Z,5.20
2023-05-23T18:32:16.931Z,5.47
2023-05-23T18:34:43.352Z,5.03
2023-05-23T18:37:09.823Z,5.40
2023-05-23T18:39:36.451Z,5.30
2023-05-23T18:42:02.908Z,5.70
2023-05-23T18:44:29.352Z,5.57
2023-05-23T18:46:55.801Z,5.40
2023-05-23T18:49:22.284Z,5.37
2023-05-23T18:51:51.579Z,5.30
2023-05-23T18:54:18.384Z,5.50
2023-05-23T18:56:44.850Z,5.30
2023-05-23T18:59:14.399Z,5.17
2023-05-23T19:01:40.942Z,6.27
2023-05-23T19:04:08.284Z,5.17
2023-05-23T19:06:34.730Z,5.37
2023-05-23T19:09:01.148Z,5.30
2023-05-23T19:11:28.005Z,6.13
2023-05-23T19:13:54.419Z,5.23
2023-05-23T19:16:21.110Z,5.33
2023-05-23T19:18:48.399Z,6.07
2023-05-23T19:21:14.895Z,5.30
2023-05-23T19:23:41.683Z,5.73
2023-05-23T19:26:08.114Z,5.53
2023-05-23T19:28:34.505Z,5.70
2023-05-23T19:31:01.293Z,5.97
2023-05-23T19:33:27.735Z,5.77
2023-05-23T19:35:54.881Z,5.70
2023-05-23T19:38:21.443Z,5.67
2023-05-23T19:40:47.942Z,5.87
2023-05-23T19:43:14.572Z,5.40
2023-05-23T19:45:40.990Z,5.20
2023-05-23T19:48:07.539Z,4.73
2023-05-23T19:50:34.017Z,5.13
2023-05-23T19:53:00.626Z,5.87
2023-05-23T19:55:27.475Z,5.80
2023-05-23T19:57:53.933Z,5.37
2023-05-23T20:00:20.656Z,7.33
2023-05-23T20:02:47.677Z,6.20
2023-05-23T20:05:14.193Z,6.43
2023-05-23T20:07:40.689Z,6.67
2023-05-23T20:10:07.759Z,5.57
2023-05-23T20:12:34.490Z,4.73
2023-05-23T20:15:04.791Z,5.63
2023-05-23T20:17:31.413Z,5.37
2023-05-23T20:19:57.856Z,5.37
2023-05-23T20:22:24.323Z,5.47
2023-05-23T20:24:50.784Z,5.33
2023-05-23T20:27:17.821Z,5.27
2023-05-23T20:29:44.261Z,5.57
2023-05-23T20:32:10.801Z,4.97
2023-05-23T20:34:37.261Z,5.03
2023-05-23T20:37:05.089Z,5.40
2023-05-23T20:39:31.494Z,5.00
2023-05-23T20:41:57.953Z,5.73
2023-05-23T20:44:24.659Z,5.10
2023-05-23T20:46:51.614Z,6.20
2023-05-23T20:49:18.667Z,4.97
2023-05-23T20:51:45.184Z,5.50
2023-05-23T20:54:12.767Z,4.80
2023-05-23T20:56:39.212Z,5.13
2023-05-23T20:59:05.650Z,5.13
2023-05-23T21:01:32.853Z,4.53
2023-05-23T21:03:59.431Z,4.67
2023-05-23T21:06:25.868Z,4.90
2023-05-23T21:08:52.326Z,4.63
2023-05-23T21:11:18.763Z,5.13
2023-05-23T21:13:45.236Z,4.67
2023-05-23T21:16:14.400Z,4.80
2023-05-23T21:18:41.038Z,5.23
2023-05-23T21:21:07.620Z,4.67
2023-05-23T21:23:34.083Z,4.20
2023-05-23T21:26:00.602Z,5.10
2023-05-23T21:28:27.391Z,4.77
2023-05-23T21:30:54.294Z,4.63
2023-05-23T21:33:21.070Z,4.43
2023-05-23T21:35:47.560Z,4.73
2023-05-23T21:38:13.984Z,4.30
2023-05-23T21:40:40.776Z,4.73
2023-05-23T21:43:07.466Z,4.53
2023-05-23T21:45:33.876Z,4.50
2023-05-23T21:48:00.471Z,4.10
2023-05-23T21:50:26.985Z,4.70
2023-05-23T21:52:53.400Z,4.40
2023-05-23T21:55:19.830Z,4.20
2023-05-23T21:57:46.424Z,4.20
2023-05-23T22:00:13.358Z,4.40
2023-05-23T22:02:40.316Z,4.30
2023-05-23T22:05:07.089Z,4.67
2023-05-23T22:07:33.708Z,4.23
2023-05-23T22:10:00.150Z,4.53
2023-05-23T22:12:26.927Z,4.87
2023-05-23T22:14:54.724Z,4.60
2023-05-23T22:17:22.727Z,4.93
2023-05-23T22:19:51.807Z,4.43
2023-05-23T22:22:18.841Z,5.07
2023-05-23T22:24:45.280Z,4.60
2023-05-23T22:27:11.721Z,4.23
2023-05-23T22:29:38.166Z,4.20
2023-05-23T22:32:05.139Z,4.13
2023-05-23T22:34:31.654Z,4.20
2023-05-23T22:37:00.227Z,4.63
2023-05-23T22:39:26.896Z,3.87
2023-05-23T22:41:53.498Z,4.43
2023-05-23T22:44:19.963Z,4.43
2023-05-23T22:46:46.433Z,3.80
2023-05-23T22:49:12.929Z,3.97
2023-05-23T22:51:40.037Z,4.27
2023-05-23T22:54:06.574Z,4.40
2023-05-23T22:56:33.021Z,3.87
2023-05-23T22:58:59.467Z,3.87
2023-05-23T23:01:25.954Z,3.70
2023-05-23T23:03:52.485Z,4.13
2023-05-23T23:06:20.891Z,4.70
2023-05-23T23:08:47.619Z,4.30
2023-05-23T23:11:14.082Z,4.27
2023-05-23T23:13:40.526Z,4.63
2023-05-23T23:16:08.604Z,3.53
2023-05-23T23:18:35.081Z,4.67
2023-05-23T23:21:01.534Z,3.70
2023-05-23T23:23:27.947Z,4.57
2023-05-23T23:25:54.542Z,4.70
2023-05-23T23:28:20.966Z,3.90
2023-05-23T23:30:47.436Z,4.57
2023-05-23T23:33:14.486Z,4.03
2023-05-23T23:35:41.118Z,4.70
2023-05-23T23:38:07.511Z,4.87
2023-05-23T23:40:33.953Z,4.20
2023-05-23T23:43:00.365Z,4.20
2023-05-23T23:45:26.814Z,4.40
2023-05-23T23:47:53.237Z,4.30
2023-05-23T23:50:19.675Z,4.10
2023-05-23T23:52:46.436Z,4.50
2023-05-23T23:55:12.920Z,4.10
2023-05-23T23:57:39.380Z,4.53
